createdAt,value
2023-01-29T00:02:03.572Z,10.50
2023-01-29T00:04:31.851Z,10.10
2023-01-29T00:07:00.247Z,12.47
2023-01-29T00:09:31.980Z,11.37
2023-01-29T00:12:00.089Z,9.60
2023-01-29T00:14:28.661Z,11.07
2023-01-29T00:16:56.808Z,10.40
2023-01-29T00:19:24.947Z,10.17
2023-01-29T00:21:53.168Z,8.40
2023-01-29T00:24:21.500Z,9.27
2023-01-29T00:26:51.131Z,10.33
2023-01-29T00:29:19.232Z,10.43
2023-01-29T00:31:48.078Z,10.00
2023-01-29T00:34:17.545Z,9.00
2023-01-29T00:36:46.380Z,9.80
2023-01-29T00:39:14.534Z,9.70
2023-01-29T00:42:00.294Z,9.70
2023-01-29T00:44:47.319Z,9.73
2023-01-29T00:47:29.334Z,10.33
2023-01-29T00:49:58.036Z,10.03
2023-01-29T00:52:26.647Z,10.50
2023-01-29T00:54:55.823Z,10.37
2023-01-29T00:57:24.036Z,10.50
2023-01-29T00:59:53.621Z,10.60
2023-01-29T01:02:39.391Z,11.70
2023-01-29T01:05:13.936Z,11.23
2023-01-29T01:07:42.177Z,10.23
2023-01-29T01:10:22.018Z,11.13
2023-01-29T01:12:53.535Z,10.97
2023-01-29T01:15:23.420Z,11.00
2023-01-29T01:17:54.683Z,10.07
2023-01-29T01:20:23.419Z,10.10
2023-01-29T01:22:54.267Z,11.07
2023-01-29T01:25:22.726Z,11.70
2023-01-29T01:27:53.964Z,11.47
2023-01-29T01:30:24.879Z,10.37
2023-01-29T01:32:53.375Z,10.30
2023-01-29T01:35:21.493Z,10.83
2023-01-29T01:37:50.325Z,9.13
2023-01-29T01:40:20.466Z,9.87
2023-01-29T01:42:50.230Z,9.40
2023-01-29T01:45:21.315Z,9.40
2023-01-29T01:47:53.437Z,9.83
2023-01-29T01:50:25.767Z,8.90
2023-01-29T01:52:57.199Z,9.10
2023-01-29T01:55:29.282Z,9.30
2023-01-29T01:58:04.053Z,9.57
2023-01-29T02:00:32.205Z,9.60
2023-01-29T02:03:21.222Z,9.03
2023-01-29T02:06:08.280Z,9.47
2023-01-29T02:09:01.065Z,8.37
2023-01-29T02:11:29.201Z,9.27
2023-01-29T02:13:58.596Z,9.97
2023-01-29T02:16:27.349Z,9.50
2023-01-29T02:18:58.411Z,9.33
2023-01-29T02:21:53.638Z,8.23
2023-01-29T02:24:51.648Z,9.17
2023-01-29T02:27:22.708Z,9.00
2023-01-29T02:30:02.917Z,9.30
2023-01-29T02:32:35.824Z,9.80
2023-01-29T02:35:42.577Z,8.63
2023-01-29T02:38:19.015Z,9.13
2023-01-29T02:40:55.250Z,9.90
2023-01-29T02:43:33.552Z,8.40
2023-01-29T02:46:09.465Z,8.10
2023-01-29T02:48:44.069Z,8.43
2023-01-29T02:51:19.431Z,9.40
2023-01-29T02:53:54.803Z,8.10
2023-01-29T02:56:28.239Z,8.40
2023-01-29T02:59:01.186Z,8.43
2023-01-29T03:01:34.688Z,7.70
2023-01-29T03:04:22.160Z,8.80
2023-01-29T03:06:54.930Z,7.93
2023-01-29T03:09:29.542Z,9.13
2023-01-29T03:12:28.490Z,8.10
2023-01-29T03:15:16.650Z,9.03
2023-01-29T03:18:01.580Z,8.70
2023-01-29T03:20:35.547Z,10.13
2023-01-29T03:23:10.185Z,9.83
2023-01-29T03:25:57.697Z,8.50
2023-01-29T03:28:47.785Z,8.67
2023-01-29T03:31:36.139Z,8.97
2023-01-29T03:34:10.203Z,8.53
2023-01-29T03:36:45.282Z,9.33
2023-01-29T03:39:16.524Z,10.07
2023-01-29T03:41:50.406Z,8.10
2023-01-29T03:44:24.935Z,8.60
2023-01-29T03:46:58.405Z,9.33
2023-01-29T03:49:34.432Z,10.23
2023-01-29T03:52:14.712Z,9.40
2023-01-29T03:54:57.483Z,9.07
2023-01-29T03:57:32.881Z,9.40
2023-01-29T04:00:08.183Z,9.60
2023-01-29T04:02:58.590Z,9.27
2023-01-29T04:05:32.635Z,9.43
2023-01-29T04:08:15.203Z,9.30
2023-01-29T04:10:46.256Z,8.90
2023-01-29T04:13:17.045Z,10.10
2023-01-29T04:15:50.600Z,9.07
2023-01-29T04:18:24.157Z,9.90
2023-01-29T04:21:09.428Z,9.53
2023-01-29T04:23:37.467Z,9.70
2023-01-29T04:26:24.100Z,10.03
2023-01-29T04:29:06.131Z,10.07
2023-01-29T04:31:38.397Z,11.10
2023-01-29T04:34:18.606Z,10.10
2023-01-29T04:36:58.471Z,9.67
2023-01-29T04:39:31.727Z,9.50
2023-01-29T04:42:10.981Z,11.00
2023-01-29T04:44:43.349Z,10.53
2023-01-29T04:47:21.075Z,10.90
2023-01-29T04:49:55.736Z,9.97
2023-01-29T04:52:33.523Z,10.53
2023-01-29T04:55:08.811Z,9.30
2023-01-29T04:57:46.269Z,10.07
2023-01-29T05:00:20.225Z,10.23
2023-01-29T05:02:49.746Z,11.73
2023-01-29T05:05:20.889Z,9.73
2023-01-29T05:07:50.772Z,9.53
2023-01-29T05:10:21.520Z,9.87
2023-01-29T05:12:53.975Z,9.33
2023-01-29T05:15:27.483Z,10.97
2023-01-29T05:18:01.792Z,9.97
2023-01-29T05:20:34.145Z,10.87
2023-01-29T05:23:03.964Z,10.17
2023-01-29T05:25:34.109Z,10.77
2023-01-29T05:28:08.321Z,9.30
2023-01-29T05:30:38.293Z,11.27
2023-01-29T05:33:12.625Z,10.60
2023-01-29T05:35:40.695Z,10.50
2023-01-29T05:38:10.455Z,10.23
2023-01-29T05:40:39.059Z,11.23
2023-01-29T05:43:13.973Z,11.90
2023-01-29T05:45:42.072Z,10.33
2023-01-29T05:48:10.183Z,9.60
2023-01-29T05:50:38.271Z,8.60
2023-01-29T05:53:06.732Z,10.43
2023-01-29T05:55:36.239Z,10.30
2023-01-29T05:58:05.956Z,10.13
2023-01-29T06:00:34.192Z,10.23
2023-01-29T06:03:02.335Z,9.80
2023-01-29T06:05:30.486Z,10.20
2023-01-29T06:07:58.625Z,11.40
2023-01-29T06:10:26.724Z,10.93
2023-01-29T06:12:56.155Z,12.67
2023-01-29T06:15:26.429Z,10.57
2023-01-29T06:17:54.873Z,11.37
2023-01-29T06:20:23.041Z,11.77
2023-01-29T06:22:51.147Z,11.77
2023-01-29T06:25:19.441Z,10.93
2023-01-29T06:27:47.515Z,13.00
2023-01-29T06:30:18.005Z,10.97
2023-01-29T06:32:46.528Z,10.80
2023-01-29T06:35:14.760Z,11.20
2023-01-29T06:37:42.875Z,11.30
2023-01-29T06:40:12.229Z,12.50
2023-01-29T06:42:40.321Z,11.57
2023-01-29T06:45:09.604Z,12.20
2023-01-29T06:47:39.104Z,11.60
2023-01-29T06:50:07.882Z,12.17
2023-01-29T06:52:36.030Z,11.73
2023-01-29T06:55:04.866Z,11.30
2023-01-29T06:57:33.044Z,11.50
2023-01-29T07:00:01.180Z,11.70
2023-01-29T07:02:29.352Z,12.50
2023-01-29T07:04:58.860Z,13.17
2023-01-29T07:07:27.007Z,13.40
2023-01-29T07:09:55.376Z,12.83
2023-01-29T07:12:23.489Z,13.27
2023-01-29T07:14:51.521Z,12.77
2023-01-29T07:17:20.587Z,11.33
2023-01-29T07:19:48.648Z,11.83
2023-01-29T07:22:18.081Z,12.47
2023-01-29T07:24:46.136Z,13.47
2023-01-29T07:27:14.344Z,13.50
2023-01-29T07:29:42.657Z,11.73
2023-01-29T07:32:10.791Z,12.30
2023-01-29T07:34:38.951Z,12.17
2023-01-29T07:37:07.187Z,12.10
2023-01-29T07:39:36.689Z,13.30
2023-01-29T07:42:04.847Z,11.87
2023-01-29T07:44:32.998Z,13.37
2023-01-29T07:47:01.122Z,14.13
2023-01-29T07:49:30.351Z,14.20
2023-01-29T07:51:58.448Z,12.60
2023-01-29T07:54:26.541Z,13.13
2023-01-29T07:56:56.132Z,14.20
2023-01-29T07:59:24.214Z,12.70
2023-01-29T08:01:52.413Z,12.47
2023-01-29T08:04:20.767Z,14.40
2023-01-29T08:06:48.984Z,12.93
2023-01-29T08:09:17.237Z,12.33
2023-01-29T08:11:45.375Z,14.17
2023-01-29T08:14:14.826Z,13.27
2023-01-29T08:16:43.056Z,12.47
2023-01-29T08:19:11.124Z,12.13
2023-01-29T08:21:39.213Z,12.63
2023-01-29T08:24:08.168Z,12.80
2023-01-29T08:26:36.278Z,13.50
2023-01-29T08:29:04.409Z,13.83
2023-01-29T08:31:34.069Z,13.23
2023-01-29T08:34:02.167Z,12.17
2023-01-29T08:36:30.433Z,12.87
2023-01-29T08:38:59.164Z,13.67
2023-01-29T08:41:27.263Z,11.60
2023-01-29T08:43:55.388Z,12.53
2023-01-29T08:46:23.510Z,13.07
2023-01-29T08:48:53.114Z,11.73
2023-01-29T08:51:21.832Z,12.97
2023-01-29T08:53:50.748Z,12.13
2023-01-29T08:56:19.717Z,10.83
2023-01-29T08:58:47.792Z,11.80
2023-01-29T09:01:16.119Z,11.80
2023-01-29T09:03:44.899Z,12.80
2023-01-29T09:06:15.846Z,12.53
2023-01-29T09:08:43.996Z,12.03
2023-01-29T09:11:12.312Z,13.07
2023-01-29T09:13:40.395Z,13.07
2023-01-29T09:16:09.040Z,11.87
2023-01-29T09:18:37.171Z,14.30
2023-01-29T09:21:05.774Z,11.63
2023-01-29T09:23:35.246Z,12.70
2023-01-29T09:26:03.320Z,31.03
2023-01-29T09:28:31.496Z,15.20
2023-01-29T09:31:02.739Z,13.53
2023-01-29T09:33:32.410Z,13.90
2023-01-29T09:36:00.581Z,11.50
2023-01-29T09:38:28.992Z,12.87
2023-01-29T09:41:06.923Z,12.70
2023-01-29T09:43:46.882Z,12.60
2023-01-29T09:46:20.519Z,11.37
2023-01-29T09:48:53.737Z,13.60
2023-01-29T09:51:29.520Z,11.97
2023-01-29T09:54:08.089Z,12.33
2023-01-29T09:56:37.631Z,12.40
2023-01-29T09:59:05.907Z,11.93
2023-01-29T10:01:41.551Z,12.50
2023-01-29T10:04:47.325Z,12.07
2023-01-29T10:07:30.621Z,11.70
2023-01-29T10:10:37.336Z,11.43
2023-01-29T10:13:21.030Z,12.20
2023-01-29T10:16:00.623Z,11.50
2023-01-29T10:18:48.725Z,10.90
2023-01-29T10:21:31.142Z,11.20
2023-01-29T10:24:09.347Z,11.43
2023-01-29T10:26:38.690Z,11.70
2023-01-29T10:29:09.267Z,13.17
2023-01-29T10:31:40.133Z,12.57
2023-01-29T10:34:13.967Z,11.50
2023-01-29T10:36:45.230Z,11.87
2023-01-29T10:39:19.196Z,12.57
2023-01-29T10:42:03.500Z,13.50
2023-01-29T10:44:43.509Z,12.10
2023-01-29T10:47:48.448Z,11.90
2023-01-29T10:50:24.782Z,13.23
2023-01-29T10:53:11.921Z,13.93
2023-01-29T10:55:53.212Z,12.53
2023-01-29T10:58:31.339Z,13.30
2023-01-29T11:01:01.446Z,14.30
2023-01-29T11:03:31.585Z,11.93
2023-01-29T11:06:08.573Z,12.20
2023-01-29T11:08:43.711Z,12.17
2023-01-29T11:11:15.796Z,11.87
2023-01-29T11:13:48.412Z,13.90
2023-01-29T11:16:17.995Z,11.53
2023-01-29T11:18:58.039Z,11.90
2023-01-29T11:21:27.452Z,11.23
2023-01-29T11:24:17.083Z,12.27
2023-01-29T11:26:47.680Z,9.90
2023-01-29T11:29:48.988Z,13.20
2023-01-29T11:32:27.212Z,12.90
2023-01-29T11:35:00.841Z,12.27
2023-01-29T11:37:37.852Z,11.43
2023-01-29T11:40:40.670Z,11.00
2023-01-29T11:43:14.743Z,11.60
2023-01-29T11:45:42.977Z,11.17
2023-01-29T11:48:17.382Z,11.43
2023-01-29T11:50:52.093Z,10.33
2023-01-29T11:53:28.264Z,9.33
2023-01-29T11:55:57.318Z,46.87
2023-01-29T11:58:30.714Z,10.77
2023-01-29T12:01:00.931Z,9.53
2023-01-29T12:03:38.588Z,10.97
2023-01-29T12:06:10.003Z,9.93
2023-01-29T12:08:40.006Z,10.20
2023-01-29T12:11:14.838Z,8.73
2023-01-29T12:13:44.246Z,10.67
2023-01-29T12:16:19.073Z,10.50
2023-01-29T12:18:54.251Z,9.07
2023-01-29T12:21:28.098Z,9.10
2023-01-29T12:24:00.431Z,8.63
2023-01-29T12:26:34.470Z,8.30
2023-01-29T12:29:17.600Z,10.03
2023-01-29T12:31:51.195Z,9.37
2023-01-29T12:34:28.471Z,11.93
2023-01-29T12:37:02.010Z,11.20
2023-01-29T12:39:30.197Z,9.07
2023-01-29T12:42:01.116Z,9.70
2023-01-29T12:44:34.623Z,9.20
2023-01-29T12:47:08.102Z,11.00
2023-01-29T12:49:40.640Z,10.30
2023-01-29T12:52:13.879Z,9.70
2023-01-29T12:54:48.839Z,9.73
2023-01-29T12:57:24.138Z,10.80
2023-01-29T12:59:56.415Z,11.80
2023-01-29T13:02:32.671Z,10.80
2023-01-29T13:05:05.973Z,10.13
2023-01-29T13:07:40.176Z,11.10
2023-01-29T13:10:13.676Z,9.40
2023-01-29T13:12:52.665Z,10.53
2023-01-29T13:15:29.079Z,10.93
2023-01-29T13:18:03.055Z,9.83
2023-01-29T13:20:35.053Z,9.33
2023-01-29T13:23:24.917Z,10.20
2023-01-29T13:25:53.379Z,8.97
2023-01-29T13:28:28.040Z,9.60
2023-01-29T13:31:24.609Z,9.30
2023-01-29T13:34:01.140Z,9.53
2023-01-29T13:36:31.929Z,10.40
2023-01-29T13:39:04.406Z,9.70
2023-01-29T13:41:35.444Z,9.70
2023-01-29T13:44:05.588Z,8.40
2023-01-29T13:46:34.050Z,9.03
2023-01-29T13:49:05.020Z,9.73
2023-01-29T13:51:37.968Z,9.20
2023-01-29T13:54:10.507Z,8.50
2023-01-29T13:56:59.223Z,7.97
2023-01-29T13:59:53.235Z,7.97
2023-01-29T14:02:24.750Z,9.30
2023-01-29T14:04:53.075Z,8.53
2023-01-29T14:07:50.101Z,9.07
2023-01-29T14:10:21.360Z,9.43
2023-01-29T14:12:52.080Z,8.83
2023-01-29T14:15:32.580Z,9.00
2023-01-29T14:18:20.371Z,10.57
2023-01-29T14:21:02.382Z,11.20
2023-01-29T14:23:46.108Z,10.10
2023-01-29T14:26:24.359Z,8.97
2023-01-29T14:29:02.516Z,12.30
2023-01-29T14:31:47.899Z,10.13
2023-01-29T14:34:30.551Z,10.17
2023-01-29T14:37:02.609Z,11.67
2023-01-29T14:39:36.688Z,9.87
2023-01-29T14:42:17.039Z,10.80
2023-01-29T14:45:11.303Z,9.80
2023-01-29T14:48:00.726Z,10.33
2023-01-29T14:50:51.580Z,10.80
2023-01-29T14:53:28.653Z,10.43
2023-01-29T14:56:02.175Z,10.00
2023-01-29T14:58:39.480Z,10.33
2023-01-29T15:01:17.058Z,12.10
2023-01-29T15:03:48.917Z,11.23
2023-01-29T15:06:21.472Z,10.60
2023-01-29T15:08:56.312Z,9.93
2023-01-29T15:11:36.959Z,11.53
2023-01-29T15:14:18.046Z,9.60
2023-01-29T15:16:52.229Z,10.43
2023-01-29T15:19:28.117Z,9.50
2023-01-29T15:22:11.543Z,10.07
2023-01-29T15:24:41.451Z,11.50
2023-01-29T15:27:15.995Z,12.37
2023-01-29T15:29:48.278Z,12.63
2023-01-29T15:32:28.588Z,11.37
2023-01-29T15:34:58.020Z,17.13
2023-01-29T15:37:31.695Z,12.17
2023-01-29T15:40:00.679Z,11.27
2023-01-29T15:42:42.397Z,12.63
2023-01-29T15:45:27.413Z,11.57
2023-01-29T15:47:59.625Z,11.83
2023-01-29T15:50:27.731Z,12.17
2023-01-29T15:52:59.296Z,11.77
2023-01-29T15:55:28.504Z,11.97
2023-01-29T15:57:58.582Z,10.00
2023-01-29T16:00:28.657Z,13.17
2023-01-29T16:02:57.359Z,13.10
2023-01-29T16:05:28.362Z,12.93
2023-01-29T16:07:57.940Z,13.27
2023-01-29T16:10:29.453Z,13.67
2023-01-29T16:12:59.661Z,21.73
2023-01-29T16:15:33.587Z,21.33
2023-01-29T16:18:03.379Z,21.80
2023-01-29T16:20:41.647Z,18.33
2023-01-29T16:23:18.407Z,16.20
2023-01-29T16:25:46.911Z,18.07
2023-01-29T16:28:17.476Z,16.50
2023-01-29T16:30:45.735Z,15.67
2023-01-29T16:33:17.104Z,17.20
2023-01-29T16:35:52.021Z,17.73
2023-01-29T16:38:28.255Z,17.00
2023-01-29T16:41:15.373Z,16.47
2023-01-29T16:43:54.844Z,18.70
2023-01-29T16:46:29.037Z,14.37
2023-01-29T16:48:57.164Z,14.17
2023-01-29T16:51:27.682Z,13.93
2023-01-29T16:54:01.160Z,12.93
2023-01-29T16:56:33.310Z,13.80
2023-01-29T16:59:04.687Z,13.83
2023-01-29T17:01:35.302Z,13.10
2023-01-29T17:04:12.696Z,13.63
2023-01-29T17:06:43.321Z,13.33
2023-01-29T17:09:22.461Z,13.70
2023-01-29T17:11:56.702Z,14.40
2023-01-29T17:14:27.249Z,14.03
2023-01-29T17:16:57.118Z,15.70
2023-01-29T17:19:25.877Z,16.17
2023-01-29T17:21:54.135Z,17.27
2023-01-29T17:24:22.180Z,19.20
2023-01-29T17:26:51.580Z,75.17
2023-01-29T17:29:24.400Z,28.27
2023-01-29T17:31:54.921Z,18.30
2023-01-29T17:34:25.069Z,19.30
2023-01-29T17:36:53.525Z,18.43
2023-01-29T17:39:23.211Z,22.40
2023-01-29T17:41:53.895Z,19.40
2023-01-29T17:44:22.689Z,18.73
2023-01-29T17:46:51.077Z,17.93
2023-01-29T17:49:24.445Z,18.03
2023-01-29T17:51:53.138Z,17.03
2023-01-29T17:54:21.590Z,16.37
2023-01-29T17:56:50.281Z,17.63
2023-01-29T17:59:19.680Z,17.00
2023-01-29T18:01:48.628Z,16.63
2023-01-29T18:04:17.083Z,20.10
2023-01-29T18:06:49.091Z,23.33
2023-01-29T18:09:20.530Z,19.50
2023-01-29T18:11:49.774Z,17.80
2023-01-29T18:14:18.067Z,19.10
2023-01-29T18:16:46.890Z,18.00
2023-01-29T18:19:19.922Z,17.50
2023-01-29T18:21:49.604Z,14.03
2023-01-29T18:24:17.825Z,16.43
2023-01-29T18:26:45.978Z,16.00
2023-01-29T18:29:14.435Z,15.70
2023-01-29T18:31:42.527Z,14.53
2023-01-29T18:34:10.652Z,16.90
2023-01-29T18:36:38.768Z,20.00
2023-01-29T18:39:08.248Z,20.97
2023-01-29T18:41:36.464Z,22.53
2023-01-29T18:44:04.651Z,19.60
2023-01-29T18:46:33.457Z,21.47
2023-01-29T18:49:01.504Z,20.83
2023-01-29T18:51:29.606Z,21.30
2023-01-29T18:53:57.733Z,21.60
2023-01-29T18:56:27.295Z,22.37
2023-01-29T18:58:56.413Z,21.10
2023-01-29T19:01:25.161Z,21.40
2023-01-29T19:03:53.937Z,23.10
2023-01-29T19:06:22.049Z,21.30
2023-01-29T19:08:50.113Z,20.40
2023-01-29T19:11:18.691Z,20.00
2023-01-29T19:13:49.745Z,20.80
2023-01-29T19:16:18.703Z,20.63
2023-01-29T19:18:46.812Z,21.63
2023-01-29T19:21:16.967Z,23.20
2023-01-29T19:23:45.836Z,22.00
2023-01-29T19:26:14.123Z,24.03
2023-01-29T19:28:42.683Z,19.80
2023-01-29T19:31:12.180Z,22.43
2023-01-29T19:33:40.674Z,21.47
2023-01-29T19:36:09.451Z,24.13
2023-01-29T19:38:38.754Z,21.37
2023-01-29T19:41:07.181Z,20.23
2023-01-29T19:43:35.351Z,19.70
2023-01-29T19:46:03.751Z,20.17
2023-01-29T19:48:33.532Z,20.93
2023-01-29T19:51:04.474Z,18.70
2023-01-29T19:53:32.994Z,21.17
2023-01-29T19:56:03.004Z,22.13
2023-01-29T19:58:31.452Z,23.30
2023-01-29T20:01:00.942Z,21.13
2023-01-29T20:03:30.681Z,25.10
2023-01-29T20:06:04.778Z,23.20
2023-01-29T20:08:34.195Z,27.77
2023-01-29T20:11:02.591Z,27.60
2023-01-29T20:13:30.642Z,26.10
2023-01-29T20:16:02.873Z,24.07
2023-01-29T20:18:31.092Z,24.27
2023-01-29T20:20:59.503Z,23.47
2023-01-29T20:23:37.833Z,23.53
2023-01-29T20:26:06.854Z,22.60
2023-01-29T20:28:35.802Z,22.50
2023-01-29T20:31:04.862Z,20.70
2023-01-29T20:33:33.647Z,22.47
2023-01-29T20:36:03.637Z,24.03
2023-01-29T20:38:34.704Z,22.70
2023-01-29T20:41:07.256Z,22.30
2023-01-29T20:43:36.031Z,21.40
2023-01-29T20:46:04.795Z,21.70
2023-01-29T20:48:33.317Z,19.37
2023-01-29T20:51:06.288Z,20.73
2023-01-29T20:53:35.935Z,17.53
2023-01-29T20:56:04.804Z,16.10
2023-01-29T20:58:33.379Z,14.83
2023-01-29T21:01:01.712Z,12.20
2023-01-29T21:03:29.840Z,13.73
2023-01-29T21:05:59.187Z,13.93
2023-01-29T21:08:27.388Z,14.87
2023-01-29T21:10:56.890Z,17.17
2023-01-29T21:13:24.984Z,12.70
2023-01-29T21:15:53.056Z,15.27
2023-01-29T21:18:21.178Z,14.33
2023-01-29T21:20:50.670Z,14.37
2023-01-29T21:23:19.025Z,13.50
2023-01-29T21:25:48.019Z,14.17
2023-01-29T21:28:17.613Z,14.43
2023-01-29T21:30:46.473Z,14.30
2023-01-29T21:33:14.587Z,16.17
2023-01-29T21:35:42.688Z,13.03
2023-01-29T21:38:10.737Z,13.97
2023-01-29T21:40:38.818Z,14.30
2023-01-29T21:43:11.781Z,15.80
2023-01-29T21:45:41.823Z,16.67
2023-01-29T21:48:11.139Z,16.00
2023-01-29T21:50:39.730Z,16.73
2023-01-29T21:53:07.873Z,13.90
2023-01-29T21:55:36.029Z,12.50
2023-01-29T21:58:04.393Z,13.00
2023-01-29T22:00:32.696Z,12.73
2023-01-29T22:03:02.334Z,11.20
2023-01-29T22:05:30.460Z,13.60
2023-01-29T22:07:58.681Z,14.97
2023-01-29T22:10:27.567Z,14.53
2023-01-29T22:12:56.058Z,13.57
2023-01-29T22:15:24.474Z,15.00
2023-01-29T22:17:52.710Z,14.43
2023-01-29T22:20:29.490Z,13.80
2023-01-29T22:22:59.364Z,16.27
2023-01-29T22:25:27.693Z,14.73
2023-01-29T22:27:55.984Z,15.23
2023-01-29T22:30:24.142Z,13.97
2023-01-29T22:32:52.529Z,12.63
2023-01-29T22:35:22.031Z,13.67
2023-01-29T22:37:50.080Z,14.40
2023-01-29T22:40:18.900Z,14.00
2023-01-29T22:42:47.240Z,14.93
2023-01-29T22:45:16.219Z,16.20
2023-01-29T22:47:44.315Z,16.53
2023-01-29T22:50:13.631Z,15.93
2023-01-29T22:52:53.228Z,15.63
2023-01-29T22:55:21.305Z,15.97
2023-01-29T22:57:49.813Z,17.10
2023-01-29T23:00:19.219Z,18.10
2023-01-29T23:02:48.127Z,16.00
2023-01-29T23:05:16.319Z,16.80
2023-01-29T23:07:46.071Z,17.20
2023-01-29T23:10:16.021Z,16.80
2023-01-29T23:12:44.376Z,16.43
2023-01-29T23:15:12.571Z,15.80
2023-01-29T23:17:40.662Z,14.90
2023-01-29T23:20:10.869Z,14.27
2023-01-29T23:22:38.987Z,14.60
2023-01-29T23:25:09.391Z,13.53
2023-01-29T23:27:36.483Z,14.30
2023-01-29T23:30:05.639Z,18.00
2023-01-29T23:32:34.509Z,15.40
2023-01-29T23:35:02.586Z,14.90
2023-01-29T23:37:30.708Z,12.90
2023-01-29T23:39:58.775Z,13.40
2023-01-29T23:42:28.276Z,14.30
2023-01-29T23:44:56.418Z,16.57
2023-01-29T23:47:24.557Z,16.40
2023-01-29T23:49:53.165Z,14.60
2023-01-29T23:52:21.218Z,14.80
2023-01-29T23:54:49.329Z,16.40
2023-01-29T23:57:17.420Z,13.90
2023-01-29T23:59:46.950Z,16.40
